[gl-como] gps data logger iblue 821

elio bonometti eliobonometti@gmail.com
Lun 5 Apr 2010 13:12:11 CEST


<?xml version="1.0" encoding="UTF-8"?><gpx version="v1.1.5"
creator="iTravel Tech Inc. - http://www.itravel-tech.com"
xmlns:xsi="http://www.w3.org/2001/XMLSchema-instance"
xmlns="http://www.topografix.com/GPX/1/1"
xsi:schemaLocation="http://www.topografix.com/GPX/1/1
http://www.topografix.com/GPX/1/1/gpx.xsd
http://www.topografix.com/GPX/gpx_overlay/0/3
http://www.topografix.com/GPX/gpx_overlay/0/3/gpx_overlay.xsd
http://www.topografix.com/GPX/gpx_modified/0/1
http://www.topografix.com/GPX/gpx_modified/0/1/gpx_modified.xsd"><trk><name>Track2010/04/04_11:44</name><trkseg><trkpt lat="45.729167" lon="8.982919"><ele>458.742371</ele><time>2010-04-04T09:44:05Z</time><desc>lat.=45.729167, lon.=8.982919, Alt.=458.742371m. Speed=1.214484m/h.</desc><speed>1.214484</speed></trkpt><trkpt lat="45.728957" lon="8.982674"><ele>446.961121</ele><time>2010-04-04T09:49:14Z</time><desc>lat.=45.728957, lon.=8.982674, Alt.=446.961121m. Speed=3.513052m/h.</desc><speed>3.513052</speed></trkpt><trkpt lat="45.729732" lon="8.983967"><ele>384.110229</ele><time>2010-04-04T09:55:23Z</time><desc>lat.=45.729732, lon.=8.983967, Alt.=384.110229m. Speed=0.685466m/h.</desc><speed>0.685466</speed></trkpt><trkpt lat="45.729718" lon="8.983962"><ele>387.729919</ele><time>2010-04-04T09:55:28Z</time><desc>lat.=45.729718, lon.=8.983962, Alt.=387.729919m. Speed=0.921849m/h.</desc><speed>0.921849</speed></trkpt><trkpt lat="45.729788" lon="8.984038"><ele>377.357300</ele><time>2010-04-04T09:55:33Z</time><desc>lat.=45.729788, lon.=8.984038, Alt.=377.357300m. Speed=0.774867m/h.</desc><speed>0.774867</speed></trkpt><trkpt lat="45.729774" lon="8.984027"><ele>373.662659</ele><time>2010-04-04T09:55:38Z</time><desc>lat.=45.729774, lon.=8.984027, Alt.=373.662659m. Speed=1.295982m/h.</desc><speed>1.295982</speed></trkpt><trkpt lat="45.729753" lon="8.983999"><ele>377.110809</ele><time>2010-04-04T09:55:43Z</time><desc>lat.=45.729753, lon.=8.983999, Alt.=377.110809m. Speed=1.221558m/h.</desc><speed>1.221558</speed></trkpt><trkpt lat="45.729745" lon="8.983987"><ele>378.375061</ele><time>2010-04-04T09:55:48Z</time><desc>lat.=45.729745, lon.=8.983987, Alt.=378.375061m. Speed=1.107882m/h.</desc><speed>1.107882</speed></trkpt><trkpt lat="45.729728" lon="8.983969"><ele>380.415161</ele><time>2010-04-04T09:55:53Z</time><desc>lat.=45.729728, lon.=8.983969, Alt.=380.415161m. Speed=1.194866m/h.</desc><speed>1.194866</speed></trkpt><trkpt lat="45.729708" lon="8.983938"><ele>381.948395</ele><time>2010-04-04T09:55:58Z</time><desc>lat.=45.729708, lon.=8.983938, Alt.=381.948395m. Speed=1.457993m/h.</desc><speed>1.457993</speed></trkpt><trkpt lat="45.729707" lon="8.983925"><ele>384.483459</ele><time>2010-04-04T09:56:03Z</time><desc>lat.=45.729707, lon.=8.983925, Alt.=384.483459m. Speed=1.244068m/h.</desc><speed>1.244068</speed></trkpt><trkpt lat="45.729687" lon="8.983893"><ele>387.739136</ele><time>2010-04-04T09:56:08Z</time><desc>lat.=45.729687, lon.=8.983893, Alt.=387.739136m. Speed=1.414763m/h.</desc><speed>1.414763</speed></trkpt><trkpt lat="45.729646" lon="8.983819"><ele>390.776794</ele><time>2010-04-04T09:56:13Z</time><desc>lat.=45.729646, lon.=8.983819, Alt.=390.776794m. Speed=1.462607m/h.</desc><speed>1.462607</speed></trkpt><trkpt lat="45.729631" lon="8.983775"><ele>392.222778</ele><time>2010-04-04T09:56:18Z</time><desc>lat.=45.729631, lon.=8.983775, Alt.=392.222778m. Speed=1.390283m/h.</desc><speed>1.390283</speed></trkpt><trkpt lat="45.729628" lon="8.983777"><ele>393.778900</ele><time>2010-04-04T09:56:23Z</time><desc>lat.=45.729628, lon.=8.983777, Alt.=393.778900m. Speed=1.399927m/h.</desc><speed>1.399927</speed></trkpt><trkpt lat="45.729630" lon="8.983774"><ele>394.813538</ele><time>2010-04-04T09:56:28Z</time><desc>lat.=45.729630, lon.=8.983774, Alt.=394.813538m. Speed=1.020837m/h.</desc><speed>1.020837</speed></trkpt><trkpt lat="45.729626" lon="8.983768"><ele>395.046112</ele><time>2010-04-04T09:56:33Z</time><desc>lat.=45.729626, lon.=8.983768, Alt.=395.046112m. Speed=0.761547m/h.</desc><speed>0.761547</speed></trkpt><trkpt lat="45.729629" lon="8.983762"><ele>394.373413</ele><time>2010-04-04T09:56:38Z</time><desc>lat.=45.729629, lon.=8.983762, Alt.=394.373413m. Speed=1.213002m/h.</desc><speed>1.213002</speed></trkpt><trkpt lat="45.729623" lon="8.983785"><ele>394.713531</ele><time>2010-04-04T09:56:43Z</time><desc>lat.=45.729623, lon.=8.983785, Alt.=394.713531m. Speed=0.935731m/h.</desc><speed>0.935731</speed></trkpt><trkpt lat="45.729618" lon="8.983781"><ele>394.153076</ele><time>2010-04-04T09:56:48Z</time><desc>lat.=45.729618, lon.=8.983781, Alt.=394.153076m. Speed=1.233173m/h.</desc><speed>1.233173</speed></trkpt><trkpt lat="45.729624" lon="8.983759"><ele>393.961700</ele><time>2010-04-04T09:56:53Z</time><desc>lat.=45.729624, lon.=8.983759, Alt.=393.961700m. Speed=1.357526m/h.</desc><speed>1.357526</speed></trkpt><trkpt lat="45.729670" lon="8.983832"><ele>378.669281</ele><time>2010-04-04T09:56:58Z</time><desc>lat.=45.729670, lon.=8.983832, Alt.=378.669281m. Speed=1.555938m/h.</desc><speed>1.555938</speed></trkpt><trkpt lat="45.729788" lon="8.984011"><ele>340.872314</ele><time>2010-04-04T09:57:03Z</time><desc>lat.=45.729788, lon.=8.984011, Alt.=340.872314m. Speed=1.216922m/h.</desc><speed>1.216922</speed></trkpt><trkpt lat="45.729815" lon="8.984095"><ele>331.262451</ele><time>2010-04-04T09:57:08Z</time><desc>lat.=45.729815, lon.=8.984095, Alt.=331.262451m. Speed=0.832524m/h.</desc><speed>0.832524</speed></trkpt><trkpt lat="45.729802" lon="8.984095"><ele>331.976257</ele><time>2010-04-04T09:57:13Z</time><desc>lat.=45.729802, lon.=8.984095, Alt.=331.976257m. Speed=0.962866m/h.</desc><speed>0.962866</speed></trkpt><trkpt lat="45.729809" lon="8.984122"><ele>333.441223</ele><time>2010-04-04T09:57:18Z</time><desc>lat.=45.729809, lon.=8.984122, Alt.=333.441223m. Speed=0.707122m/h.</desc><speed>0.707122</speed></trkpt><trkpt lat="45.729807" lon="8.984114"><ele>333.460999</ele><time>2010-04-04T09:57:23Z</time><desc>lat.=45.729807, lon.=8.984114, Alt.=333.460999m. Speed=0.264996m/h.</desc><speed>0.264996</speed></trkpt><trkpt lat="45.729804" lon="8.984113"><ele>333.459106</ele><time>2010-04-04T09:57:28Z</time><desc>lat.=45.729804, lon.=8.984113, Alt.=333.459106m. Speed=0.355355m/h.</desc><speed>0.355355</speed></trkpt><trkpt lat="45.729801" lon="8.984112"><ele>333.459351</ele><time>2010-04-04T09:57:33Z</time><desc>lat.=45.729801, lon.=8.984112, Alt.=333.459351m. Speed=0.284622m/h.</desc><speed>0.284622</speed></trkpt><trkpt lat="45.729801" lon="8.984118"><ele>333.060059</ele><time>2010-04-04T09:57:38Z</time><desc>lat.=45.729801, lon.=8.984118, Alt.=333.060059m. Speed=0.268491m/h.</desc><speed>0.268491</speed></trkpt><trkpt lat="45.729807" lon="8.984143"><ele>332.116791</ele><time>2010-04-04T09:57:43Z</time><desc>lat.=45.729807, lon.=8.984143, Alt.=332.116791m. Speed=0.467622m/h.</desc><speed>0.467622</speed></trkpt><trkpt lat="45.729817" lon="8.984167"><ele>330.795898</ele><time>2010-04-04T09:57:48Z</time><desc>lat.=45.729817, lon.=8.984167, Alt.=330.795898m. Speed=0.369721m/h.</desc><speed>0.369721</speed></trkpt><trkpt lat="45.729826" lon="8.984195"><ele>329.548340</ele><time>2010-04-04T09:57:53Z</time><desc>lat.=45.729826, lon.=8.984195, Alt.=329.548340m. Speed=0.762602m/h.</desc><speed>0.762602</speed></trkpt><trkpt lat="45.729834" lon="8.984214"><ele>328.675354</ele><time>2010-04-04T09:57:58Z</time><desc>lat.=45.729834, lon.=8.984214, Alt.=328.675354m. Speed=0.835636m/h.</desc><speed>0.835636</speed></trkpt><trkpt lat="45.729844" lon="8.984242"><ele>327.362061</ele><time>2010-04-04T09:58:03Z</time><desc>lat.=45.729844, lon.=8.984242, Alt.=327.362061m. Speed=0.823608m/h.</desc><speed>0.823608</speed></trkpt><trkpt lat="45.729930" lon="8.984361"><ele>327.054688</ele><time>2010-04-04T09:58:08Z</time><desc>lat.=45.729930, lon.=8.984361, Alt.=327.054688m. Speed=1.263191m/h.</desc><speed>1.263191</speed></trkpt><trkpt lat="45.729958" lon="8.984390"><ele>326.657745</ele><time>2010-04-04T09:58:13Z</time><desc>lat.=45.729958, lon.=8.984390, Alt.=326.657745m. Speed=1.320532m/h.</desc><speed>1.320532</speed></trkpt><trkpt lat="45.729950" lon="8.984427"><ele>326.579559</ele><time>2010-04-04T09:58:18Z</time><desc>lat.=45.729950, lon.=8.984427, Alt.=326.579559m. Speed=0.770497m/h.</desc><speed>0.770497</speed></trkpt><trkpt lat="45.729940" lon="8.984431"><ele>326.508392</ele><time>2010-04-04T09:58:23Z</time><desc>lat.=45.729940, lon.=8.984431, Alt.=326.508392m. Speed=0.808230m/h.</desc><speed>0.808230</speed></trkpt><trkpt lat="45.729935" lon="8.984419"><ele>326.507538</ele><time>2010-04-04T09:58:28Z</time><desc>lat.=45.729935, lon.=8.984419, Alt.=326.507538m. Speed=0.425794m/h.</desc><speed>0.425794</speed></trkpt><trkpt lat="45.729932" lon="8.984410"><ele>326.503906</ele><time>2010-04-04T09:58:33Z</time><desc>lat.=45.729932, lon.=8.984410, Alt.=326.503906m. Speed=0.460344m/h.</desc><speed>0.460344</speed></trkpt><trkpt lat="45.729931" lon="8.984408"><ele>326.505524</ele><time>2010-04-04T09:58:38Z</time><desc>lat.=45.729931, lon.=8.984408, Alt.=326.505524m. Speed=0.213832m/h.</desc><speed>0.213832</speed></trkpt><trkpt lat="45.729930" lon="8.984409"><ele>326.520264</ele><time>2010-04-04T09:58:43Z</time><desc>lat.=45.729930, lon.=8.984409, Alt.=326.520264m. Speed=0.440604m/h.</desc><speed>0.440604</speed></trkpt><trkpt lat="45.729928" lon="8.984402"><ele>326.551239</ele><time>2010-04-04T09:58:48Z</time><desc>lat.=45.729928, lon.=8.984402, Alt.=326.551239m. Speed=0.571688m/h.</desc><speed>0.571688</speed></trkpt><trkpt lat="45.729925" lon="8.984393"><ele>326.578766</ele><time>2010-04-04T09:58:53Z</time><desc>lat.=45.729925, lon.=8.984393, Alt.=326.578766m. Speed=0.514804m/h.</desc><speed>0.514804</speed></trkpt><trkpt lat="45.729925" lon="8.984384"><ele>326.605560</ele><time>2010-04-04T09:58:58Z</time><desc>lat.=45.729925, lon.=8.984384, Alt.=326.605560m. Speed=0.391684m/h.</desc><speed>0.391684</speed></trkpt><trkpt lat="45.729926" lon="8.984381"><ele>326.637482</ele><time>2010-04-04T09:59:03Z</time><desc>lat.=45.729926, lon.=8.984381, Alt.=326.637482m. Speed=0.276046m/h.</desc><speed>0.276046</speed></trkpt><trkpt lat="45.729925" lon="8.984380"><ele>326.646790</ele><time>2010-04-04T09:59:08Z</time><desc>lat.=45.729925, lon.=8.984380, Alt.=326.646790m. Speed=0.096109m/h.</desc><speed>0.096109</speed></trkpt><trkpt lat="45.729924" lon="8.984375"><ele>326.678680</ele><time>2010-04-04T09:59:13Z</time><desc>lat.=45.729924, lon.=8.984375, Alt.=326.678680m. Speed=0.420118m/h.</desc><speed>0.420118</speed></trkpt><trkpt lat="45.729924" lon="8.984369"><ele>326.748688</ele><time>2010-04-04T09:59:18Z</time><desc>lat.=45.729924, lon.=8.984369, Alt.=326.748688m. Speed=0.263094m/h.</desc><speed>0.263094</speed></trkpt><trkpt lat="45.729919" lon="8.984364"><ele>326.810974</ele><time>2010-04-04T09:59:23Z</time><desc>lat.=45.729919, lon.=8.984364, Alt.=326.810974m. Speed=0.460849m/h.</desc><speed>0.460849</speed></trkpt><trkpt lat="45.729919" lon="8.984354"><ele>326.858002</ele><time>2010-04-04T09:59:28Z</time><desc>lat.=45.729919, lon.=8.984354, Alt.=326.858002m. Speed=0.513651m/h.</desc><speed>0.513651</speed></trkpt><trkpt lat="45.729919" lon="8.984345"><ele>326.881012</ele><time>2010-04-04T09:59:33Z</time><desc>lat.=45.729919, lon.=8.984345, Alt.=326.881012m. Speed=0.062758m/h.</desc><speed>0.062758</speed></trkpt><trkpt lat="45.729918" lon="8.984343"><ele>326.919708</ele><time>2010-04-04T09:59:38Z</time><desc>lat.=45.729918, lon.=8.984343, Alt.=326.919708m. Speed=0.074040m/h.</desc><speed>0.074040</speed></trkpt><trkpt lat="45.729917" lon="8.984341"><ele>326.958527</ele><time>2010-04-04T09:59:43Z</time><desc>lat.=45.729917, lon.=8.984341, Alt.=326.958527m. Speed=0.080533m/h.</desc><speed>0.080533</speed></trkpt><trkpt lat="45.729917" lon="8.984337"><ele>326.703644</ele><time>2010-04-04T09:59:48Z</time><desc>lat.=45.729917, lon.=8.984337, Alt.=326.703644m. Speed=0.397625m/h.</desc><speed>0.397625</speed></trkpt><trkpt lat="45.729920" lon="8.984345"><ele>325.215454</ele><time>2010-04-04T09:59:53Z</time><desc>lat.=45.729920, lon.=8.984345, Alt.=325.215454m. Speed=0.707176m/h.</desc><speed>0.707176</speed></trkpt><trkpt lat="45.729933" lon="8.984361"><ele>323.594025</ele><time>2010-04-04T09:59:58Z</time><desc>lat.=45.729933, lon.=8.984361, Alt.=323.594025m. Speed=0.826465m/h.</desc><speed>0.826465</speed></trkpt><trkpt lat="45.730143" lon="8.984332"><ele>305.441803</ele><time>2010-04-04T10:00:03Z</time><desc>lat.=45.730143, lon.=8.984332, Alt.=305.441803m. Speed=0.916427m/h.</desc><speed>0.916427</speed></trkpt><trkpt lat="45.730125" lon="8.984343"><ele>304.905396</ele><time>2010-04-04T10:00:08Z</time><desc>lat.=45.730125, lon.=8.984343, Alt.=304.905396m. Speed=0.553588m/h.</desc><speed>0.553588</speed></trkpt><trkpt lat="45.730116" lon="8.984340"><ele>304.879578</ele><time>2010-04-04T10:00:13Z</time><desc>lat.=45.730116, lon.=8.984340, Alt.=304.879578m. Speed=0.592832m/h.</desc><speed>0.592832</speed></trkpt><trkpt lat="45.730107" lon="8.984332"><ele>304.879578</ele><time>2010-04-04T10:00:18Z</time><desc>lat.=45.730107, lon.=8.984332, Alt.=304.879578m. Speed=0.833907m/h.</desc><speed>0.833907</speed></trkpt><trkpt lat="45.730098" lon="8.984325"><ele>304.886017</ele><time>2010-04-04T10:00:23Z</time><desc>lat.=45.730098, lon.=8.984325, Alt.=304.886017m. Speed=0.443136m/h.</desc><speed>0.443136</speed></trkpt><trkpt lat="45.730092" lon="8.984321"><ele>304.898651</ele><time>2010-04-04T10:00:28Z</time><desc>lat.=45.730092, lon.=8.984321, Alt.=304.898651m. Speed=0.434242m/h.</desc><speed>0.434242</speed></trkpt><trkpt lat="45.730086" lon="8.984317"><ele>304.921448</ele><time>2010-04-04T10:00:33Z</time><desc>lat.=45.730086, lon.=8.984317, Alt.=304.921448m. Speed=0.530257m/h.</desc><speed>0.530257</speed></trkpt><trkpt lat="45.730079" lon="8.984308"><ele>304.940002</ele><time>2010-04-04T10:00:38Z</time><desc>lat.=45.730079, lon.=8.984308, Alt.=304.940002m. Speed=0.630324m/h.</desc><speed>0.630324</speed></trkpt><trkpt lat="45.730074" lon="8.984302"><ele>304.701172</ele><time>2010-04-04T10:00:43Z</time><desc>lat.=45.730074, lon.=8.984302, Alt.=304.701172m. Speed=0.308509m/h.</desc><speed>0.308509</speed></trkpt><trkpt lat="45.730068" lon="8.984293"><ele>304.705597</ele><time>2010-04-04T10:00:48Z</time><desc>lat.=45.730068, lon.=8.984293, Alt.=304.705597m. Speed=0.993284m/h.</desc><speed>0.993284</speed></trkpt><trkpt lat="45.730031" lon="8.984280"><ele>305.403442</ele><time>2010-04-04T10:00:53Z</time><desc>lat.=45.730031, lon.=8.984280, Alt.=305.403442m. Speed=1.209571m/h.</desc><speed>1.209571</speed></trkpt><trkpt lat="45.729990" lon="8.984281"><ele>306.316223</ele><time>2010-04-04T10:00:58Z</time><desc>lat.=45.729990, lon.=8.984281, Alt.=306.316223m. Speed=0.951592m/h.</desc><speed>0.951592</speed></trkpt><trkpt lat="45.729957" lon="8.984259"><ele>306.840759</ele><time>2010-04-04T10:01:03Z</time><desc>lat.=45.729957, lon.=8.984259, Alt.=306.840759m. Speed=1.189474m/h.</desc><speed>1.189474</speed></trkpt><trkpt lat="45.729799" lon="8.984024"><ele>334.079071</ele><time>2010-04-04T10:01:08Z</time><desc>lat.=45.729799, lon.=8.984024, Alt.=334.079071m. Speed=2.004210m/h.</desc><speed>2.004210</speed></trkpt><trkpt lat="45.729667" lon="8.983805"><ele>362.187775</ele><time>2010-04-04T10:01:13Z</time><desc>lat.=45.729667, lon.=8.983805, Alt.=362.187775m. Speed=3.088888m/h.</desc><speed>3.088888</speed></trkpt><trkpt lat="45.729618" lon="8.983716"><ele>370.596771</ele><time>2010-04-04T10:01:18Z</time><desc>lat.=45.729618, lon.=8.983716, Alt.=370.596771m. Speed=3.187628m/h.</desc><speed>3.187628</speed></trkpt><trkpt lat="45.729600" lon="8.983689"><ele>376.702087</ele><time>2010-04-04T10:01:23Z</time><desc>lat.=45.729600, lon.=8.983689, Alt.=376.702087m. Speed=2.292821m/h.</desc><speed>2.292821</speed></trkpt><trkpt lat="45.729582" lon="8.983666"><ele>380.388214</ele><time>2010-04-04T10:01:28Z</time><desc>lat.=45.729582, lon.=8.983666, Alt.=380.388214m. Speed=2.783864m/h.</desc><speed>2.783864</speed></trkpt><trkpt lat="45.729578" lon="8.983655"><ele>384.852386</ele><time>2010-04-04T10:01:33Z</time><desc>lat.=45.729578, lon.=8.983655, Alt.=384.852386m. Speed=2.834539m/h.</desc><speed>2.834539</speed></trkpt><trkpt lat="45.729569" lon="8.983647"><ele>388.689026</ele><time>2010-04-04T10:01:38Z</time><desc>lat.=45.729569, lon.=8.983647, Alt.=388.689026m. Speed=2.915482m/h.</desc><speed>2.915482</speed></trkpt><trkpt lat="45.729565" lon="8.983623"><ele>391.452545</ele><time>2010-04-04T10:01:43Z</time><desc>lat.=45.729565, lon.=8.983623, Alt.=391.452545m. Speed=2.665883m/h.</desc><speed>2.665883</speed></trkpt><trkpt lat="45.729559" lon="8.983624"><ele>394.144653</ele><time>2010-04-04T10:01:48Z</time><desc>lat.=45.729559, lon.=8.983624, Alt.=394.144653m. Speed=0.550220m/h.</desc><speed>0.550220</speed></trkpt><trkpt lat="45.729561" lon="8.983652"><ele>394.762207</ele><time>2010-04-04T10:01:53Z</time><desc>lat.=45.729561, lon.=8.983652, Alt.=394.762207m. Speed=0.560515m/h.</desc><speed>0.560515</speed></trkpt><trkpt lat="45.729556" lon="8.983647"><ele>394.839996</ele><time>2010-04-04T10:01:58Z</time><desc>lat.=45.729556, lon.=8.983647, Alt.=394.839996m. Speed=0.609300m/h.</desc><speed>0.609300</speed></trkpt><trkpt lat="45.729548" lon="8.983646"><ele>394.828735</ele><time>2010-04-04T10:02:03Z</time><desc>lat.=45.729548, lon.=8.983646, Alt.=394.828735m. Speed=0.880182m/h.</desc><speed>0.880182</speed></trkpt><trkpt lat="45.729532" lon="8.983565"><ele>396.413330</ele><time>2010-04-04T10:02:15Z</time><desc>lat.=45.729532, lon.=8.983565, Alt.=396.413330m. Speed=2.729535m/h.</desc><speed>2.729535</speed></trkpt></trkseg></trk></gpx>

questo  il tracciato che scarico tranquillamente con windows e copio su
chiavetta. trasferito sul pc con ubuntu viene letto dal programma bt747.
come mai non riesco ad importarlo direttamente......la cosa mi fa
impazzire
saluti


Il giorno lun, 05/04/2010 alle 12.05 +0200, Elena of Valhalla ha
scritto:
> On 4/5/10, elio bonometti <eliobonometti@gmail.com> wrote:
> > dopo averlo collegato alla usb e lanciato il programma bt747 nella prima
> > videata chi vi allego, il dati vengono visti e i downlod effettuato ma i
> > dati ricavati non vengono letti nella fase successiva.
> 
> da quella schermata a me sembra che dica di non trovare molti dati
> (Memoria usata: 354pts (0%)
> 
> provato ad usare il download completo al posto di quello intelligente?
> 




Maggiori informazioni sulla lista gl-como